sensor_id;sensor_type;location;lat;lon;timestamp;P1;durP1;ratioP1;P2;durP2;ratioP2
39982;SDS011;25670;44.782;10.356;2023-06-10T00:00:50;10.95;;;8.85;;
39982;SDS011;25670;44.782;10.356;2023-06-10T00:03:16;8.45;;;7.90;;
39982;SDS011;25670;44.782;10.356;2023-06-10T00:05:43;7.82;;;7.03;;
39982;SDS011;25670;44.782;10.356;2023-06-10T00:08:09;12.20;;;6.22;;
39982;SDS011;25670;44.782;10.356;2023-06-10T00:10:36;8.75;;;6.10;;
39982;SDS011;25670;44.782;10.356;2023-06-10T00:13:04;10.88;;;4.72;;
39982;SDS011;25670;44.782;10.356;2023-06-10T00:15:33;8.38;;;3.65;;
39982;SDS011;25670;44.782;10.356;2023-06-10T00:18:01;5.05;;;3.65;;
39982;SDS011;25670;44.782;10.356;2023-06-10T00:20:27;5.22;;;3.30;;
39982;SDS011;25670;44.782;10.356;2023-06-10T00:22:54;5.15;;;2.97;;
39982;SDS011;25670;44.782;10.356;2023-06-10T00:25:20;7.97;;;3.15;;
39982;SDS011;25670;44.782;10.356;2023-06-10T00:27:46;4.07;;;3.35;;
39982;SDS011;25670;44.782;10.356;2023-06-10T00:30:12;5.65;;;3.22;;
39982;SDS011;25670;44.782;10.356;2023-06-10T00:32:39;4.13;;;3.50;;
39982;SDS011;25670;44.782;10.356;2023-06-10T00:35:05;3.40;;;3.10;;
39982;SDS011;25670;44.782;10.356;2023-06-10T00:37:32;5.38;;;3.22;;
39982;SDS011;25670;44.782;10.356;2023-06-10T00:40:02;5.45;;;3.08;;
39982;SDS011;25670;44.782;10.356;2023-06-10T00:42:28;2.83;;;2.58;;
39982;SDS011;25670;44.782;10.356;2023-06-10T00:44:55;4.38;;;2.55;;
39982;SDS011;25670;44.782;10.356;2023-06-10T00:47:21;8.07;;;2.70;;
39982;SDS011;25670;44.782;10.356;2023-06-10T00:49:48;3.88;;;2.88;;
39982;SDS011;25670;44.782;10.356;2023-06-10T00:52:16;7.47;;;3.00;;
39982;SDS011;25670;44.782;10.356;2023-06-10T00:54:44;5.50;;;2.70;;
39982;SDS011;25670;44.782;10.356;2023-06-10T00:57:10;6.53;;;2.55;;
39982;SDS011;25670;44.782;10.356;2023-06-10T00:59:39;3.85;;;2.67;;
39982;SDS011;25670;44.782;10.356;2023-06-10T01:02:06;4.13;;;2.60;;
39982;SDS011;25670;44.782;10.356;2023-06-10T01:04:33;7.85;;;3.05;;
39982;SDS011;25670;44.782;10.356;2023-06-10T01:09:50;4.10;;;3.63;;
39982;SDS011;25670;44.782;10.356;2023-06-10T01:12:43;5.07;;;2.70;;
39982;SDS011;25670;44.782;10.356;2023-06-10T01:15:16;5.60;;;2.50;;
39982;SDS011;25670;44.782;10.356;2023-06-10T01:17:54;4.47;;;2.70;;
39982;SDS011;25670;44.782;10.356;2023-06-10T01:20:24;6.47;;;3.03;;
39982;SDS011;25670;44.782;10.356;2023-06-10T01:22:56;6.32;;;3.42;;
39982;SDS011;25670;44.782;10.356;2023-06-10T01:25:23;5.80;;;3.47;;
39982;SDS011;25670;44.782;10.356;2023-06-10T01:27:56;7.78;;;3.50;;
39982;SDS011;25670;44.782;10.356;2023-06-10T01:30:47;6.93;;;3.33;;
39982;SDS011;25670;44.782;10.356;2023-06-10T01:33:29;7.38;;;3.65;;
39982;SDS011;25670;44.782;10.356;2023-06-10T01:35:59;5.63;;;3.58;;
39982;SDS011;25670;44.782;10.356;2023-06-10T01:38:29;5.57;;;3.42;;
39982;SDS011;25670;44.782;10.356;2023-06-10T01:41:02;8.32;;;3.08;;
39982;SDS011;25670;44.782;10.356;2023-06-10T01:43:32;11.90;;;8.63;;
39982;SDS011;25670;44.782;10.356;2023-06-10T01:45:59;5.28;;;4.05;;
39982;SDS011;25670;44.782;10.356;2023-06-10T01:48:26;9.50;;;3.60;;
39982;SDS011;25670;44.782;10.356;2023-06-10T01:50:52;10.00;;;4.97;;
39982;SDS011;25670;44.782;10.356;2023-06-10T01:53:20;10.68;;;4.32;;
39982;SDS011;25670;44.782;10.356;2023-06-10T01:55:46;4.97;;;4.47;;
39982;SDS011;25670;44.782;10.356;2023-06-10T01:58:12;8.95;;;4.22;;
39982;SDS011;25670;44.782;10.356;2023-06-10T02:00:39;7.78;;;4.60;;
39982;SDS011;25670;44.782;10.356;2023-06-10T02:03:08;7.22;;;4.93;;
39982;SDS011;25670;44.782;10.356;2023-06-10T02:05:35;10.45;;;4.78;;
39982;SDS011;25670;44.782;10.356;2023-06-10T02:08:01;18.88;;;4.63;;
39982;SDS011;25670;44.782;10.356;2023-06-10T02:10:27;4.63;;;4.18;;
39982;SDS011;25670;44.782;10.356;2023-06-10T02:12:56;5.55;;;4.38;;
39982;SDS011;25670;44.782;10.356;2023-06-10T02:15:22;7.63;;;4.20;;
39982;SDS011;25670;44.782;10.356;2023-06-10T02:17:49;4.68;;;4.20;;
39982;SDS011;25670;44.782;10.356;2023-06-10T02:20:16;5.65;;;4.55;;
39982;SDS011;25670;44.782;10.356;2023-06-10T02:22:42;6.70;;;3.97;;
39982;SDS011;25670;44.782;10.356;2023-06-10T02:25:08;7.82;;;4.47;;
39982;SDS011;25670;44.782;10.356;2023-06-10T02:27:35;6.13;;;4.10;;
39982;SDS011;25670;44.782;10.356;2023-06-10T02:30:01;8.05;;;4.20;;
39982;SDS011;25670;44.782;10.356;2023-06-10T02:32:30;7.70;;;4.15;;
39982;SDS011;25670;44.782;10.356;2023-06-10T02:34:56;10.82;;;4.63;;
39982;SDS011;25670;44.782;10.356;2023-06-10T02:37:24;6.97;;;4.35;;
39982;SDS011;25670;44.782;10.356;2023-06-10T02:39:51;9.25;;;3.85;;
39982;SDS011;25670;44.782;10.356;2023-06-10T02:42:17;7.05;;;5.07;;
39982;SDS011;25670;44.782;10.356;2023-06-10T02:44:45;6.97;;;4.60;;
39982;SDS011;25670;44.782;10.356;2023-06-10T02:47:16;9.05;;;4.47;;
39982;SDS011;25670;44.782;10.356;2023-06-10T02:49:42;9.07;;;4.32;;
39982;SDS011;25670;44.782;10.356;2023-06-10T02:52:09;8.30;;;4.50;;
39982;SDS011;25670;44.782;10.356;2023-06-10T02:54:37;7.03;;;4.20;;
39982;SDS011;25670;44.782;10.356;2023-06-10T02:57:06;7.15;;;4.80;;
39982;SDS011;25670;44.782;10.356;2023-06-10T02:59:33;5.75;;;4.50;;
39982;SDS011;25670;44.782;10.356;2023-06-10T03:01:59;8.18;;;5.50;;
39982;SDS011;25670;44.782;10.356;2023-06-10T03:04:29;4.95;;;4.50;;
39982;SDS011;25670;44.782;10.356;2023-06-10T03:07:05;15.65;;;6.47;;
39982;SDS011;25670;44.782;10.356;2023-06-10T03:09:34;5.30;;;4.40;;
39982;SDS011;25670;44.782;10.356;2023-06-10T03:12:02;5.30;;;4.80;;
39982;SDS011;25670;44.782;10.356;2023-06-10T03:14:33;7.43;;;4.55;;
39982;SDS011;25670;44.782;10.356;2023-06-10T03:17:01;9.77;;;6.10;;
39982;SDS011;25670;44.782;10.356;2023-06-10T03:19:30;10.63;;;4.80;;
39982;SDS011;25670;44.782;10.356;2023-06-10T03:21:58;7.70;;;5.32;;
39982;SDS011;25670;44.782;10.356;2023-06-10T03:24:34;11.40;;;5.20;;
39982;SDS011;25670;44.782;10.356;2023-06-10T03:27:02;7.65;;;5.00;;
39982;SDS011;25670;44.782;10.356;2023-06-10T03:29:31;6.40;;;4.45;;
39982;SDS011;25670;44.782;10.356;2023-06-10T03:31:57;7.45;;;4.68;;
39982;SDS011;25670;44.782;10.356;2023-06-10T03:34:24;12.30;;;5.30;;
39982;SDS011;25670;44.782;10.356;2023-06-10T03:36:51;8.32;;;4.70;;
39982;SDS011;25670;44.782;10.356;2023-06-10T03:39:17;5.97;;;5.32;;
39982;SDS011;25670;44.782;10.356;2023-06-10T03:41:43;7.13;;;5.80;;
39982;SDS011;25670;44.782;10.356;2023-06-10T03:44:10;10.75;;;6.40;;
39982;SDS011;25670;44.782;10.356;2023-06-10T03:46:36;6.40;;;5.63;;
39982;SDS011;25670;44.782;10.356;2023-06-10T03:49:03;6.32;;;4.85;;
39982;SDS011;25670;44.782;10.356;2023-06-10T03:51:31;6.70;;;5.70;;
39982;SDS011;25670;44.782;10.356;2023-06-10T03:53:57;12.98;;;5.88;;
39982;SDS011;25670;44.782;10.356;2023-06-10T03:56:24;6.20;;;5.70;;
39982;SDS011;25670;44.782;10.356;2023-06-10T03:58:51;8.57;;;6.60;;
39982;SDS011;25670;44.782;10.356;2023-06-10T04:01:17;6.80;;;5.90;;
39982;SDS011;25670;44.782;10.356;2023-06-10T04:03:47;12.27;;;6.78;;
39982;SDS011;25670;44.782;10.356;2023-06-10T04:06:14;10.15;;;6.28;;
39982;SDS011;25670;44.782;10.356;2023-06-10T04:08:41;7.68;;;5.65;;
39982;SDS011;25670;44.782;10.356;2023-06-10T04:11:08;9.32;;;6.25;;
39982;SDS011;25670;44.782;10.356;2023-06-10T04:13:35;8.57;;;7.35;;
39982;SDS011;25670;44.782;10.356;2023-06-10T04:16:02;10.73;;;6.57;;
39982;SDS011;25670;44.782;10.356;2023-06-10T04:18:29;18.40;;;6.95;;
39982;SDS011;25670;44.782;10.356;2023-06-10T04:20:59;10.18;;;7.15;;
39982;SDS011;25670;44.782;10.356;2023-06-10T04:23:25;11.05;;;7.35;;
39982;SDS011;25670;44.782;10.356;2023-06-10T04:25:52;11.90;;;6.80;;
39982;SDS011;25670;44.782;10.356;2023-06-10T04:31:50;9.55;;;6.93;;
39982;SDS011;25670;44.782;10.356;2023-06-10T04:34:17;13.25;;;7.22;;
39982;SDS011;25670;44.782;10.356;2023-06-10T04:40:58;13.63;;;6.95;;
39982;SDS011;25670;44.782;10.356;2023-06-10T04:50:44;7.60;;;6.90;;
39982;SDS011;25670;44.782;10.356;2023-06-10T04:53:17;11.43;;;8.43;;
39982;SDS011;25670;44.782;10.356;2023-06-10T04:55:49;10.00;;;7.45;;
39982;SDS011;25670;44.782;10.356;2023-06-10T04:58:17;11.07;;;7.78;;
39982;SDS011;25670;44.782;10.356;2023-06-10T05:07:04;8.50;;;7.18;;
39982;SDS011;25670;44.782;10.356;2023-06-10T05:09:36;8.52;;;7.40;;
39982;SDS011;25670;44.782;10.356;2023-06-10T05:12:03;11.10;;;7.60;;
39982;SDS011;25670;44.782;10.356;2023-06-10T05:15:27;7.78;;;7.30;;
39982;SDS011;25670;44.782;10.356;2023-06-10T05:21:41;7.90;;;6.35;;
39982;SDS011;25670;44.782;10.356;2023-06-10T05:24:08;9.23;;;6.45;;
39982;SDS011;25670;44.782;10.356;2023-06-10T05:26:35;6.80;;;6.40;;
39982;SDS011;25670;44.782;10.356;2023-06-10T05:31:34;13.10;;;6.80;;
39982;SDS011;25670;44.782;10.356;2023-06-10T05:34:01;14.93;;;7.07;;
39982;SDS011;25670;44.782;10.356;2023-06-10T05:36:27;7.32;;;6.60;;
39982;SDS011;25670;44.782;10.356;2023-06-10T05:38:54;16.25;;;6.70;;
39982;SDS011;25670;44.782;10.356;2023-06-10T05:41:20;8.05;;;6.57;;
39982;SDS011;25670;44.782;10.356;2023-06-10T05:43:50;7.20;;;6.50;;
39982;SDS011;25670;44.782;10.356;2023-06-10T05:46:16;6.45;;;5.85;;
39982;SDS011;25670;44.782;10.356;2023-06-10T05:48:43;7.53;;;6.07;;
39982;SDS011;25670;44.782;10.356;2023-06-10T05:51:09;6.70;;;5.55;;
39982;SDS011;25670;44.782;10.356;2023-06-10T05:53:36;8.68;;;5.78;;
39982;SDS011;25670;44.782;10.356;2023-06-10T05:56:02;9.45;;;5.95;;
39982;SDS011;25670;44.782;10.356;2023-06-10T05:58:28;6.38;;;5.43;;
39982;SDS011;25670;44.782;10.356;2023-06-10T06:00:55;6.82;;;5.97;;
39982;SDS011;25670;44.782;10.356;2023-06-10T06:03:24;6.00;;;5.15;;
39982;SDS011;25670;44.782;10.356;2023-06-10T06:05:54;5.15;;;4.85;;
39982;SDS011;25670;44.782;10.356;2023-06-10T06:08:20;7.75;;;4.93;;
39982;SDS011;25670;44.782;10.356;2023-06-10T06:10:47;10.77;;;5.68;;
39982;SDS011;25670;44.782;10.356;2023-06-10T06:13:13;5.60;;;4.10;;
39982;SDS011;25670;44.782;10.356;2023-06-10T06:15:41;4.45;;;4.10;;
39982;SDS011;25670;44.782;10.356;2023-06-10T06:18:08;5.75;;;3.95;;
39982;SDS011;25670;44.782;10.356;2023-06-10T06:20:34;5.05;;;4.38;;
39982;SDS011;25670;44.782;10.356;2023-06-10T06:23:01;5.55;;;4.18;;
39982;SDS011;25670;44.782;10.356;2023-06-10T06:25:27;5.28;;;3.80;;
39982;SDS011;25670;44.782;10.356;2023-06-10T06:27:53;5.13;;;3.10;;
39982;SDS011;25670;44.782;10.356;2023-06-10T06:30:20;6.88;;;3.25;;
39982;SDS011;25670;44.782;10.356;2023-06-10T06:32:46;3.95;;;3.65;;
39982;SDS011;25670;44.782;10.356;2023-06-10T06:35:12;5.53;;;3.53;;
39982;SDS011;25670;44.782;10.356;2023-06-10T06:37:39;8.50;;;4.80;;
39982;SDS011;25670;44.782;10.356;2023-06-10T06:40:20;5.65;;;2.95;;
39982;SDS011;25670;44.782;10.356;2023-06-10T06:42:46;2.72;;;2.53;;
39982;SDS011;25670;44.782;10.356;2023-06-10T06:45:35;7.53;;;2.33;;
39982;SDS011;25670;44.782;10.356;2023-06-10T06:48:02;4.90;;;2.15;;
39982;SDS011;25670;44.782;10.356;2023-06-10T06:50:28;2.80;;;2.33;;
39982;SDS011;25670;44.782;10.356;2023-06-10T06:52:54;3.20;;;1.35;;
39982;SDS011;25670;44.782;10.356;2023-06-10T06:55:20;1.73;;;1.20;;
39982;SDS011;25670;44.782;10.356;2023-06-10T06:57:46;4.38;;;1.80;;
39982;SDS011;25670;44.782;10.356;2023-06-10T07:00:13;5.13;;;1.70;;
39982;SDS011;25670;44.782;10.356;2023-06-10T07:02:39;3.22;;;1.17;;
39982;SDS011;25670;44.782;10.356;2023-06-10T07:05:05;3.10;;;1.63;;
39982;SDS011;25670;44.782;10.356;2023-06-10T07:07:33;4.00;;;1.70;;
39982;SDS011;25670;44.782;10.356;2023-06-10T07:10:00;2.20;;;2.00;;
39982;SDS011;25670;44.782;10.356;2023-06-10T07:12:26;2.03;;;1.65;;
39982;SDS011;25670;44.782;10.356;2023-06-10T07:14:52;3.95;;;2.20;;
39982;SDS011;25670;44.782;10.356;2023-06-10T07:17:18;2.50;;;2.30;;
39982;SDS011;25670;44.782;10.356;2023-06-10T07:19:45;2.78;;;1.50;;
39982;SDS011;25670;44.782;10.356;2023-06-10T07:22:11;2.25;;;1.90;;
39982;SDS011;25670;44.782;10.356;2023-06-10T07:24:38;2.45;;;1.98;;
39982;SDS011;25670;44.782;10.356;2023-06-10T07:27:04;1.73;;;1.63;;
39982;SDS011;25670;44.782;10.356;2023-06-10T07:29:31;2.75;;;2.22;;
39982;SDS011;25670;44.782;10.356;2023-06-10T07:31:57;3.30;;;2.83;;
39982;SDS011;25670;44.782;10.356;2023-06-10T07:34:24;9.70;;;3.28;;
39982;SDS011;25670;44.782;10.356;2023-06-10T07:36:50;6.03;;;3.05;;
39982;SDS011;25670;44.782;10.356;2023-06-10T07:39:16;4.05;;;2.70;;
39982;SDS011;25670;44.782;10.356;2023-06-10T07:41:42;6.07;;;3.05;;
39982;SDS011;25670;44.782;10.356;2023-06-10T07:44:08;8.73;;;3.30;;
39982;SDS011;25670;44.782;10.356;2023-06-10T07:46:35;15.10;;;6.18;;
39982;SDS011;25670;44.782;10.356;2023-06-10T07:49:01;4.22;;;2.95;;
39982;SDS011;25670;44.782;10.356;2023-06-10T07:51:27;3.03;;;1.70;;
39982;SDS011;25670;44.782;10.356;2023-06-10T07:53:54;2.15;;;1.92;;
39982;SDS011;25670;44.782;10.356;2023-06-10T07:56:20;3.42;;;2.22;;
39982;SDS011;25670;44.782;10.356;2023-06-10T07:58:47;3.80;;;1.90;;
39982;SDS011;25670;44.782;10.356;2023-06-10T08:01:13;2.63;;;2.42;;
39982;SDS011;25670;44.782;10.356;2023-06-10T08:03:39;7.63;;;2.67;;
39982;SDS011;25670;44.782;10.356;2023-06-10T08:06:06;7.80;;;2.75;;
39982;SDS011;25670;44.782;10.356;2023-06-10T08:08:32;8.70;;;2.40;;
39982;SDS011;25670;44.782;10.356;2023-06-10T08:11:00;8.27;;;2.75;;
39982;SDS011;25670;44.782;10.356;2023-06-10T08:13:26;6.28;;;2.75;;
39982;SDS011;25670;44.782;10.356;2023-06-10T08:15:52;3.70;;;3.05;;
39982;SDS011;25670;44.782;10.356;2023-06-10T08:18:20;2.85;;;2.63;;
39982;SDS011;25670;44.782;10.356;2023-06-10T08:20:47;4.65;;;2.90;;
39982;SDS011;25670;44.782;10.356;2023-06-10T08:23:13;5.93;;;2.90;;
39982;SDS011;25670;44.782;10.356;2023-06-10T08:25:40;5.55;;;3.22;;
39982;SDS011;25670;44.782;10.356;2023-06-10T08:28:06;2.80;;;2.58;;
39982;SDS011;25670;44.782;10.356;2023-06-10T08:30:32;5.18;;;2.33;;
39982;SDS011;25670;44.782;10.356;2023-06-10T08:32:59;7.75;;;2.90;;
39982;SDS011;25670;44.782;10.356;2023-06-10T08:35:25;3.58;;;2.53;;
39982;SDS011;25670;44.782;10.356;2023-06-10T08:37:51;3.10;;;2.80;;
39982;SDS011;25670;44.782;10.356;2023-06-10T08:40:18;3.75;;;3.00;;
39982;SDS011;25670;44.782;10.356;2023-06-10T08:42:49;4.85;;;3.80;;
39982;SDS011;25670;44.782;10.356;2023-06-10T08:45:26;3.45;;;3.15;;
39982;SDS011;25670;44.782;10.356;2023-06-10T08:47:55;7.43;;;3.92;;
39982;SDS011;25670;44.782;10.356;2023-06-10T08:50:23;7.65;;;4.50;;
39982;SDS011;25670;44.782;10.356;2023-06-10T08:52:50;6.43;;;3.85;;
39982;SDS011;25670;44.782;10.356;2023-06-10T08:55:21;4.07;;;3.20;;
39982;SDS011;25670;44.782;10.356;2023-06-10T08:57:53;4.20;;;3.90;;
39982;SDS011;25670;44.782;10.356;2023-06-10T09:00:19;4.40;;;3.28;;
39982;SDS011;25670;44.782;10.356;2023-06-10T09:02:46;5.47;;;2.90;;
39982;SDS011;25670;44.782;10.356;2023-06-10T09:05:13;8.13;;;3.58;;
39982;SDS011;25670;44.782;10.356;2023-06-10T09:07:39;6.00;;;3.70;;
39982;SDS011;25670;44.782;10.356;2023-06-10T09:10:06;3.63;;;3.42;;
39982;SDS011;25670;44.782;10.356;2023-06-10T09:12:33;6.47;;;3.63;;
39982;SDS011;25670;44.782;10.356;2023-06-10T09:15:04;5.40;;;3.45;;
39982;SDS011;25670;44.782;10.356;2023-06-10T09:17:31;4.63;;;4.25;;
39982;SDS011;25670;44.782;10.356;2023-06-10T09:22:25;11.55;;;4.18;;
39982;SDS011;25670;44.782;10.356;2023-06-10T09:25:01;4.07;;;3.70;;
39982;SDS011;25670;44.782;10.356;2023-06-10T09:27:50;5.85;;;3.80;;
39982;SDS011;25670;44.782;10.356;2023-06-10T09:30:32;5.65;;;3.42;;
39982;SDS011;25670;44.782;10.356;2023-06-10T09:33:03;4.88;;;4.15;;
39982;SDS011;25670;44.782;10.356;2023-06-10T09:35:47;9.82;;;3.63;;
39982;SDS011;25670;44.782;10.356;2023-06-10T09:38:19;5.28;;;3.55;;
39982;SDS011;25670;44.782;10.356;2023-06-10T09:40:50;6.75;;;3.38;;
39982;SDS011;25670;44.782;10.356;2023-06-10T09:43:18;9.93;;;3.55;;
39982;SDS011;25670;44.782;10.356;2023-06-10T09:45:47;57.80;;;5.88;;
39982;SDS011;25670;44.782;10.356;2023-06-10T09:48:14;5.68;;;3.92;;
39982;SDS011;25670;44.782;10.356;2023-06-10T09:50:43;3.40;;;3.13;;
39982;SDS011;25670;44.782;10.356;2023-06-10T09:53:11;6.07;;;3.17;;
39982;SDS011;25670;44.782;10.356;2023-06-10T09:55:38;7.63;;;3.22;;
39982;SDS011;25670;44.782;10.356;2023-06-10T09:58:06;5.90;;;3.50;;
39982;SDS011;25670;44.782;10.356;2023-06-10T10:00:33;3.65;;;3.35;;
39982;SDS011;25670;44.782;10.356;2023-06-10T10:03:00;4.82;;;4.32;;
39982;SDS011;25670;44.782;10.356;2023-06-10T10:05:27;4.65;;;3.53;;
39982;SDS011;25670;44.782;10.356;2023-06-10T10:07:53;3.95;;;3.65;;
39982;SDS011;25670;44.782;10.356;2023-06-10T10:10:22;8.07;;;3.80;;
39982;SDS011;25670;44.782;10.356;2023-06-10T10:12:50;8.32;;;4.78;;
39982;SDS011;25670;44.782;10.356;2023-06-10T10:15:21;4.07;;;3.72;;
39982;SDS011;25670;44.782;10.356;2023-06-10T10:17:52;3.97;;;3.60;;
39982;SDS011;25670;44.782;10.356;2023-06-10T10:20:31;3.92;;;3.55;;
39982;SDS011;25670;44.782;10.356;2023-06-10T10:23:00;3.78;;;3.58;;
39982;SDS011;25670;44.782;10.356;2023-06-10T10:25:32;4.40;;;3.83;;
39982;SDS011;25670;44.782;10.356;2023-06-10T10:28:09;6.53;;;4.55;;
39982;SDS011;25670;44.782;10.356;2023-06-10T10:30:42;4.35;;;4.05;;
39982;SDS011;25670;44.782;10.356;2023-06-10T10:33:12;4.90;;;4.50;;
39982;SDS011;25670;44.782;10.356;2023-06-10T10:36:09;5.53;;;4.57;;
39982;SDS011;25670;44.782;10.356;2023-06-10T10:38:36;4.38;;;3.85;;
39982;SDS011;25670;44.782;10.356;2023-06-10T10:41:03;4.78;;;4.40;;
39982;SDS011;25670;44.782;10.356;2023-06-10T10:43:30;5.28;;;4.78;;
39982;SDS011;25670;44.782;10.356;2023-06-10T10:46:01;5.00;;;4.70;;
39982;SDS011;25670;44.782;10.356;2023-06-10T10:48:37;7.55;;;5.90;;
39982;SDS011;25670;44.782;10.356;2023-06-10T10:51:04;5.60;;;5.10;;
39982;SDS011;25670;44.782;10.356;2023-06-10T10:53:30;5.35;;;4.85;;
39982;SDS011;25670;44.782;10.356;2023-06-10T10:58:30;6.15;;;5.55;;
39982;SDS011;25670;44.782;10.356;2023-06-10T11:00:57;5.95;;;4.97;;
39982;SDS011;25670;44.782;10.356;2023-06-10T11:03:27;9.25;;;5.40;;
39982;SDS011;25670;44.782;10.356;2023-06-10T11:05:59;5.95;;;5.38;;
39982;SDS011;25670;44.782;10.356;2023-06-10T11:10:54;6.55;;;5.07;;
39982;SDS011;25670;44.782;10.356;2023-06-10T11:13:21;6.40;;;5.00;;
39982;SDS011;25670;44.782;10.356;2023-06-10T11:15:48;8.75;;;4.85;;
39982;SDS011;25670;44.782;10.356;2023-06-10T11:20:58;7.47;;;5.32;;
39982;SDS011;25670;44.782;10.356;2023-06-10T11:26:15;6.68;;;5.75;;
39982;SDS011;25670;44.782;10.356;2023-06-10T11:31:24;7.20;;;5.90;;
39982;SDS011;25670;44.782;10.356;2023-06-10T11:33:53;8.15;;;6.07;;
39982;SDS011;25670;44.782;10.356;2023-06-10T11:36:19;6.07;;;5.60;;
39982;SDS011;25670;44.782;10.356;2023-06-10T11:38:45;11.25;;;6.53;;
39982;SDS011;25670;44.782;10.356;2023-06-10T11:41:12;10.30;;;6.65;;
39982;SDS011;25670;44.782;10.356;2023-06-10T11:43:43;6.57;;;5.95;;
39982;SDS011;25670;44.782;10.356;2023-06-10T11:46:13;8.65;;;6.15;;
39982;SDS011;25670;44.782;10.356;2023-06-10T11:48:51;6.63;;;6.18;;
39982;SDS011;25670;44.782;10.356;2023-06-10T11:51:18;7.63;;;6.60;;
39982;SDS011;25670;44.782;10.356;2023-06-10T11:53:45;12.52;;;6.85;;
39982;SDS011;25670;44.782;10.356;2023-06-10T11:56:12;7.75;;;7.10;;
39982;SDS011;25670;44.782;10.356;2023-06-10T11:58:40;10.15;;;7.22;;
39982;SDS011;25670;44.782;10.356;2023-06-10T12:03:36;11.73;;;7.75;;
39982;SDS011;25670;44.782;10.356;2023-06-10T12:06:04;7.80;;;7.00;;
39982;SDS011;25670;44.782;10.356;2023-06-10T12:08:32;9.02;;;7.22;;
39982;SDS011;25670;44.782;10.356;2023-06-10T12:11:06;7.57;;;6.97;;
39982;SDS011;25670;44.782;10.356;2023-06-10T12:13:33;10.55;;;7.82;;
39982;SDS011;25670;44.782;10.356;2023-06-10T12:16:06;10.57;;;7.80;;
39982;SDS011;25670;44.782;10.356;2023-06-10T12:18:36;8.43;;;7.60;;
39982;SDS011;25670;44.782;10.356;2023-06-10T12:21:02;7.15;;;6.55;;
39982;SDS011;25670;44.782;10.356;2023-06-10T12:23:29;13.82;;;6.18;;
39982;SDS011;25670;44.782;10.356;2023-06-10T12:25:55;8.05;;;7.35;;
39982;SDS011;25670;44.782;10.356;2023-06-10T12:28:23;7.72;;;7.00;;
39982;SDS011;25670;44.782;10.356;2023-06-10T12:30:50;5.10;;;4.80;;
39982;SDS011;25670;44.782;10.356;2023-06-10T12:33:20;3.92;;;3.63;;
39982;SDS011;25670;44.782;10.356;2023-06-10T12:35:47;3.80;;;2.93;;
39982;SDS011;25670;44.782;10.356;2023-06-10T12:38:20;7.72;;;2.97;;
39982;SDS011;25670;44.782;10.356;2023-06-10T12:40:47;8.52;;;4.20;;
39982;SDS011;25670;44.782;10.356;2023-06-10T12:43:13;11.45;;;5.03;;
39982;SDS011;25670;44.782;10.356;2023-06-10T12:45:51;6.07;;;4.72;;
39982;SDS011;25670;44.782;10.356;2023-06-10T12:48:18;4.22;;;3.92;;
39982;SDS011;25670;44.782;10.356;2023-06-10T12:50:55;7.97;;;3.63;;
39982;SDS011;25670;44.782;10.356;2023-06-10T12:53:23;5.90;;;4.03;;
39982;SDS011;25670;44.782;10.356;2023-06-10T12:55:52;7.85;;;3.97;;
39982;SDS011;25670;44.782;10.356;2023-06-10T12:58:21;5.93;;;4.07;;
39982;SDS011;25670;44.782;10.356;2023-06-10T13:00:48;8.90;;;3.83;;
39982;SDS011;25670;44.782;10.356;2023-06-10T13:03:18;3.88;;;3.25;;
39982;SDS011;25670;44.782;10.356;2023-06-10T13:05:44;4.78;;;3.35;;
39982;SDS011;25670;44.782;10.356;2023-06-10T13:08:10;4.82;;;3.50;;
39982;SDS011;25670;44.782;10.356;2023-06-10T13:10:36;4.55;;;2.90;;
39982;SDS011;25670;44.782;10.356;2023-06-10T13:13:03;6.30;;;3.15;;
39982;SDS011;25670;44.782;10.356;2023-06-10T13:15:31;6.85;;;3.13;;
39982;SDS011;25670;44.782;10.356;2023-06-10T13:18:02;4.15;;;2.97;;
39982;SDS011;25670;44.782;10.356;2023-06-10T13:20:29;6.95;;;3.08;;
39982;SDS011;25670;44.782;10.356;2023-06-10T13:22:55;3.45;;;3.15;;
39982;SDS011;25670;44.782;10.356;2023-06-10T13:25:21;4.88;;;3.80;;
39982;SDS011;25670;44.782;10.356;2023-06-10T13:27:48;4.03;;;3.20;;
39982;SDS011;25670;44.782;10.356;2023-06-10T13:30:15;3.92;;;3.63;;
39982;SDS011;25670;44.782;10.356;2023-06-10T13:32:41;5.22;;;4.05;;
39982;SDS011;25670;44.782;10.356;2023-06-10T13:35:07;5.63;;;3.88;;
39982;SDS011;25670;44.782;10.356;2023-06-10T13:37:34;4.00;;;3.70;;
39982;SDS011;25670;44.782;10.356;2023-06-10T13:40:00;3.97;;;3.67;;
39982;SDS011;25670;44.782;10.356;2023-06-10T13:42:28;9.15;;;4.13;;
39982;SDS011;25670;44.782;10.356;2023-06-10T13:44:55;7.35;;;4.13;;
39982;SDS011;25670;44.782;10.356;2023-06-10T13:47:22;6.00;;;3.58;;
39982;SDS011;25670;44.782;10.356;2023-06-10T13:49:48;9.55;;;3.75;;
39982;SDS011;25670;44.782;10.356;2023-06-10T13:52:14;4.25;;;3.90;;
39982;SDS011;25670;44.782;10.356;2023-06-10T13:54:40;3.78;;;3.47;;
39982;SDS011;25670;44.782;10.356;2023-06-10T13:57:06;4.30;;;3.90;;
39982;SDS011;25670;44.782;10.356;2023-06-10T13:59:32;6.35;;;4.07;;
39982;SDS011;25670;44.782;10.356;2023-06-10T14:01:59;4.18;;;3.78;;
39982;SDS011;25670;44.782;10.356;2023-06-10T14:04:25;5.80;;;3.60;;
39982;SDS011;25670;44.782;10.356;2023-06-10T14:06:52;5.82;;;3.17;;
39982;SDS011;25670;44.782;10.356;2023-06-10T14:09:18;3.50;;;2.80;;
39982;SDS011;25670;44.782;10.356;2023-06-10T14:11:44;5.80;;;2.85;;
39982;SDS011;25670;44.782;10.356;2023-06-10T14:14:10;6.93;;;2.38;;
39982;SDS011;25670;44.782;10.356;2023-06-10T14:16:37;6.50;;;2.63;;
39982;SDS011;25670;44.782;10.356;2023-06-10T14:19:03;5.90;;;2.80;;
39982;SDS011;25670;44.782;10.356;2023-06-10T14:21:29;4.88;;;2.63;;
39982;SDS011;25670;44.782;10.356;2023-06-10T14:23:55;7.05;;;3.13;;
39982;SDS011;25670;44.782;10.356;2023-06-10T14:26:21;6.40;;;2.40;;
39982;SDS011;25670;44.782;10.356;2023-06-10T14:28:48;5.63;;;2.63;;
39982;SDS011;25670;44.782;10.356;2023-06-10T14:31:15;3.20;;;2.90;;
39982;SDS011;25670;44.782;10.356;2023-06-10T14:33:42;11.27;;;3.70;;
39982;SDS011;25670;44.782;10.356;2023-06-10T14:36:09;5.68;;;3.53;;
39982;SDS011;25670;44.782;10.356;2023-06-10T14:38:37;3.33;;;2.88;;
39982;SDS011;25670;44.782;10.356;2023-06-10T14:41:03;6.40;;;3.60;;
39982;SDS011;25670;44.782;10.356;2023-06-10T14:43:29;6.05;;;3.03;;
39982;SDS011;25670;44.782;10.356;2023-06-10T14:45:55;7.40;;;2.67;;
39982;SDS011;25670;44.782;10.356;2023-06-10T14:48:22;5.82;;;3.00;;
39982;SDS011;25670;44.782;10.356;2023-06-10T14:50:48;6.30;;;2.88;;
39982;SDS011;25670;44.782;10.356;2023-06-10T14:53:20;2.42;;;2.00;;
39982;SDS011;25670;44.782;10.356;2023-06-10T14:55:46;2.70;;;2.40;;
39982;SDS011;25670;44.782;10.356;2023-06-10T14:58:12;3.25;;;2.17;;
39982;SDS011;25670;44.782;10.356;2023-06-10T15:00:39;5.07;;;2.95;;
39982;SDS011;25670;44.782;10.356;2023-06-10T15:03:05;3.67;;;2.45;;
39982;SDS011;25670;44.782;10.356;2023-06-10T15:05:31;4.93;;;2.40;;
39982;SDS011;25670;44.782;10.356;2023-06-10T15:07:58;3.90;;;2.60;;
39982;SDS011;25670;44.782;10.356;2023-06-10T15:10:25;4.13;;;2.00;;
39982;SDS011;25670;44.782;10.356;2023-06-10T15:12:51;6.00;;;2.33;;
39982;SDS011;25670;44.782;10.356;2023-06-10T15:15:21;3.40;;;2.03;;
39982;SDS011;25670;44.782;10.356;2023-06-10T15:17:48;4.03;;;1.80;;
39982;SDS011;25670;44.782;10.356;2023-06-10T15:20:14;3.65;;;2.08;;
39982;SDS011;25670;44.782;10.356;2023-06-10T15:22:41;2.55;;;1.92;;
39982;SDS011;25670;44.782;10.356;2023-06-10T15:25:07;14.10;;;2.90;;
39982;SDS011;25670;44.782;10.356;2023-06-10T15:27:33;2.70;;;2.03;;